sensor_id;sensor_type;location;lat;lon;timestamp;pressure;altitude;pressure_sealevel;temperature;humidity
41306;BME280;27051;50.376;19.152;2022-07-23T00:00:20;98207.22;;;23.10;48.02
41306;BME280;27051;50.376;19.152;2022-07-23T00:02:49;98208.23;;;23.08;48.07
41306;BME280;27051;50.376;19.152;2022-07-23T00:05:15;98204.64;;;23.11;47.95
41306;BME280;27051;50.376;19.152;2022-07-23T00:07:42;98209.08;;;23.05;48.14
41306;BME280;27051;50.376;19.152;2022-07-23T00:10:09;98210.02;;;22.95;47.99
41306;BME280;27051;50.376;19.152;2022-07-23T00:12:37;98209.89;;;22.79;48.30
41306;BME280;27051;50.376;19.152;2022-07-23T00:15:08;98220.75;;;22.62;48.41
41306;BME280;27051;50.376;19.152;2022-07-23T00:17:35;98227.03;;;22.59;48.56
41306;BME280;27051;50.376;19.152;2022-07-23T00:20:03;98223.77;;;22.56;48.72
41306;BME280;27051;50.376;19.152;2022-07-23T00:22:31;98219.84;;;22.45;48.79
41306;BME280;27051;50.376;19.152;2022-07-23T00:24:58;98213.87;;;22.27;49.10
41306;BME280;27051;50.376;19.152;2022-07-23T00:27:24;98228.48;;;22.13;49.25
41306;BME280;27051;50.376;19.152;2022-07-23T00:29:51;98221.11;;;22.10;49.53
41306;BME280;27051;50.376;19.152;2022-07-23T00:32:18;98214.10;;;22.09;49.58
41306;BME280;27051;50.376;19.152;2022-07-23T00:34:44;98220.75;;;22.08;49.69
41306;BME280;27051;50.376;19.152;2022-07-23T00:37:11;98221.80;;;22.02;49.72
41306;BME280;27051;50.376;19.152;2022-07-23T00:39:38;98220.64;;;22.03;49.84
41306;BME280;27051;50.376;19.152;2022-07-23T00:42:04;98218.91;;;22.13;49.90
41306;BME280;27051;50.376;19.152;2022-07-23T00:44:31;98209.99;;;22.24;49.75
41306;BME280;27051;50.376;19.152;2022-07-23T00:46:59;98208.86;;;22.33;49.69
41306;BME280;27051;50.376;19.152;2022-07-23T00:49:28;98206.02;;;22.41;49.53
41306;BME280;27051;50.376;19.152;2022-07-23T00:51:57;98208.28;;;22.46;49.55
41306;BME280;27051;50.376;19.152;2022-07-23T00:54:27;98209.61;;;22.49;49.39
41306;BME280;27051;50.376;19.152;2022-07-23T00:56:55;98209.65;;;22.46;49.37
41306;BME280;27051;50.376;19.152;2022-07-23T00:59:22;98216.33;;;22.45;49.45
41306;BME280;27051;50.376;19.152;2022-07-23T01:01:48;98220.67;;;22.42;49.57
41306;BME280;27051;50.376;19.152;2022-07-23T01:04:15;98221.25;;;22.30;49.80
41306;BME280;27051;50.376;19.152;2022-07-23T01:06:43;98222.08;;;22.27;49.94
41306;BME280;27051;50.376;19.152;2022-07-23T01:09:11;98217.20;;;22.26;49.98
41306;BME280;27051;50.376;19.152;2022-07-23T01:11:38;98221.02;;;22.17;50.14
41306;BME280;27051;50.376;19.152;2022-07-23T01:14:15;98216.77;;;22.13;50.17
41306;BME280;27051;50.376;19.152;2022-07-23T01:16:40;98220.53;;;21.95;50.29
41306;BME280;27051;50.376;19.152;2022-07-23T01:19:09;98224.02;;;21.84;50.43
41306;BME280;27051;50.376;19.152;2022-07-23T01:21:39;98228.66;;;21.72;50.52
41306;BME280;27051;50.376;19.152;2022-07-23T01:24:09;98227.16;;;21.67;50.71
41306;BME280;27051;50.376;19.152;2022-07-23T01:26:38;98227.92;;;21.67;50.72
41306;BME280;27051;50.376;19.152;2022-07-23T01:29:06;98224.95;;;21.70;50.82
41306;BME280;27051;50.376;19.152;2022-07-23T01:31:33;98224.16;;;21.58;51.00
41306;BME280;27051;50.376;19.152;2022-07-23T01:33:59;98220.68;;;21.54;51.06
41306;BME280;27051;50.376;19.152;2022-07-23T01:36:27;98216.11;;;21.43;51.16
41306;BME280;27051;50.376;19.152;2022-07-23T01:38:54;98215.57;;;21.40;51.29
41306;BME280;27051;50.376;19.152;2022-07-23T01:41:20;98206.80;;;21.37;51.37
41306;BME280;27051;50.376;19.152;2022-07-23T01:43:47;98209.41;;;21.29;51.39
41306;BME280;27051;50.376;19.152;2022-07-23T01:46:14;98212.34;;;21.30;51.66
41306;BME280;27051;50.376;19.152;2022-07-23T01:48:41;98214.33;;;21.26;51.63
41306;BME280;27051;50.376;19.152;2022-07-23T01:51:08;98214.59;;;21.20;51.73
41306;BME280;27051;50.376;19.152;2022-07-23T01:53:35;98215.11;;;21.08;51.86
41306;BME280;27051;50.376;19.152;2022-07-23T01:56:03;98219.48;;;21.01;52.21
41306;BME280;27051;50.376;19.152;2022-07-23T01:58:30;98229.98;;;21.03;52.20
41306;BME280;27051;50.376;19.152;2022-07-23T02:00:57;98219.61;;;21.06;52.16
41306;BME280;27051;50.376;19.152;2022-07-23T02:03:24;98226.77;;;20.93;52.22
41306;BME280;27051;50.376;19.152;2022-07-23T02:05:52;98220.55;;;20.89;52.45
41306;BME280;27051;50.376;19.152;2022-07-23T02:08:19;98226.12;;;20.78;52.49
41306;BME280;27051;50.376;19.152;2022-07-23T02:10:46;98226.70;;;20.77;52.61
41306;BME280;27051;50.376;19.152;2022-07-23T02:13:13;98228.03;;;20.81;52.75
41306;BME280;27051;50.376;19.152;2022-07-23T02:15:41;98220.91;;;20.72;52.84
41306;BME280;27051;50.376;19.152;2022-07-23T02:18:08;98228.82;;;20.59;52.95
41306;BME280;27051;50.376;19.152;2022-07-23T02:20:35;98224.36;;;20.53;53.10
41306;BME280;27051;50.376;19.152;2022-07-23T02:23:01;98218.02;;;20.67;53.29
41306;BME280;27051;50.376;19.152;2022-07-23T02:25:28;98222.22;;;20.79;53.23
41306;BME280;27051;50.376;19.152;2022-07-23T02:27:55;98226.23;;;20.86;53.10
41306;BME280;27051;50.376;19.152;2022-07-23T02:30:21;98224.14;;;20.82;53.04
41306;BME280;27051;50.376;19.152;2022-07-23T02:32:48;98222.73;;;20.86;53.15
41306;BME280;27051;50.376;19.152;2022-07-23T02:35:15;98219.45;;;20.83;53.12
41306;BME280;27051;50.376;19.152;2022-07-23T02:37:41;98214.97;;;20.80;53.41
41306;BME280;27051;50.376;19.152;2022-07-23T02:40:09;98220.16;;;20.90;53.46
41306;BME280;27051;50.376;19.152;2022-07-23T02:42:37;98219.84;;;20.81;53.40
41306;BME280;27051;50.376;19.152;2022-07-23T02:45:05;98222.29;;;20.68;53.60
41306;BME280;27051;50.376;19.152;2022-07-23T02:47:34;98221.56;;;20.64;53.72
41306;BME280;27051;50.376;19.152;2022-07-23T02:50:00;98224.69;;;20.63;54.04
41306;BME280;27051;50.376;19.152;2022-07-23T02:52:27;98217.30;;;20.59;53.89
41306;BME280;27051;50.376;19.152;2022-07-23T02:54:54;98224.36;;;20.53;54.14
41306;BME280;27051;50.376;19.152;2022-07-23T02:57:20;98216.39;;;20.47;54.27
41306;BME280;27051;50.376;19.152;2022-07-23T02:59:47;98216.02;;;20.45;54.55
41306;BME280;27051;50.376;19.152;2022-07-23T03:02:14;98214.47;;;20.44;54.55
41306;BME280;27051;50.376;19.152;2022-07-23T03:04:40;98213.87;;;20.48;54.75
41306;BME280;27051;50.376;19.152;2022-07-23T03:07:07;98204.11;;;20.47;54.89
41306;BME280;27051;50.376;19.152;2022-07-23T03:09:34;98207.59;;;20.51;54.97
41306;BME280;27051;50.376;19.152;2022-07-23T03:12:01;98204.48;;;20.49;55.03
41306;BME280;27051;50.376;19.152;2022-07-23T03:14:27;98198.69;;;20.44;54.99
41306;BME280;27051;50.376;19.152;2022-07-23T03:16:54;98193.67;;;20.35;55.26
41306;BME280;27051;50.376;19.152;2022-07-23T03:19:20;98194.25;;;20.38;55.32
41306;BME280;27051;50.376;19.152;2022-07-23T03:21:47;98194.17;;;20.45;55.30
41306;BME280;27051;50.376;19.152;2022-07-23T03:24:14;98196.47;;;20.50;55.34
41306;BME280;27051;50.376;19.152;2022-07-23T03:26:40;98203.09;;;20.56;55.24
41306;BME280;27051;50.376;19.152;2022-07-23T03:29:07;98197.81;;;20.57;55.30
41306;BME280;27051;50.376;19.152;2022-07-23T03:31:34;98205.23;;;20.57;55.40
41306;BME280;27051;50.376;19.152;2022-07-23T03:34:01;98200.27;;;20.67;55.57
41306;BME280;27051;50.376;19.152;2022-07-23T03:36:28;98201.59;;;20.71;55.53
41306;BME280;27051;50.376;19.152;2022-07-23T03:38:55;98205.13;;;20.71;55.56
41306;BME280;27051;50.376;19.152;2022-07-23T03:41:21;98209.88;;;20.60;55.57
41306;BME280;27051;50.376;19.152;2022-07-23T03:43:48;98211.80;;;20.63;55.74
41306;BME280;27051;50.376;19.152;2022-07-23T03:46:14;98211.09;;;20.78;56.00
41306;BME280;27051;50.376;19.152;2022-07-23T03:48:41;98208.08;;;20.88;55.98
41306;BME280;27051;50.376;19.152;2022-07-23T03:51:08;98205.30;;;20.91;55.80
41306;BME280;27051;50.376;19.152;2022-07-23T03:53:34;98206.56;;;20.83;55.72
41306;BME280;27051;50.376;19.152;2022-07-23T03:56:01;98205.67;;;20.74;55.78
41306;BME280;27051;50.376;19.152;2022-07-23T03:58:27;98205.25;;;20.76;56.05
41306;BME280;27051;50.376;19.152;2022-07-23T04:00:54;98205.19;;;20.83;56.07
41306;BME280;27051;50.376;19.152;2022-07-23T04:03:21;98210.22;;;20.88;56.14
41306;BME280;27051;50.376;19.152;2022-07-23T04:05:47;98207.11;;;20.86;56.22
41306;BME280;27051;50.376;19.152;2022-07-23T04:08:14;98213.88;;;20.93;56.43
41306;BME280;27051;50.376;19.152;2022-07-23T04:10:41;98212.07;;;20.98;56.53
41306;BME280;27051;50.376;19.152;2022-07-23T04:13:07;98209.59;;;21.11;56.58
41306;BME280;27051;50.376;19.152;2022-07-23T04:15:34;98215.69;;;21.26;56.86
41306;BME280;27051;50.376;19.152;2022-07-23T04:18:00;98213.61;;;21.41;56.81
41306;BME280;27051;50.376;19.152;2022-07-23T04:20:27;98212.11;;;21.52;56.82
41306;BME280;27051;50.376;19.152;2022-07-23T04:22:53;98212.34;;;21.64;56.86
41306;BME280;27051;50.376;19.152;2022-07-23T04:25:20;98220.09;;;21.70;56.91
41306;BME280;27051;50.376;19.152;2022-07-23T04:27:47;98224.78;;;21.84;56.89
41306;BME280;27051;50.376;19.152;2022-07-23T04:30:13;98212.30;;;21.99;56.71
41306;BME280;27051;50.376;19.152;2022-07-23T04:32:40;98218.37;;;22.10;56.63
41306;BME280;27051;50.376;19.152;2022-07-23T04:35:08;98213.73;;;22.22;56.58
41306;BME280;27051;50.376;19.152;2022-07-23T04:37:35;98214.80;;;22.28;56.50
41306;BME280;27051;50.376;19.152;2022-07-23T04:40:03;98214.70;;;22.36;56.46
41306;BME280;27051;50.376;19.152;2022-07-23T04:42:31;98212.16;;;22.37;56.39
41306;BME280;27051;50.376;19.152;2022-07-23T04:44:57;98206.31;;;22.46;56.47
41306;BME280;27051;50.376;19.152;2022-07-23T04:47:24;98209.06;;;22.58;56.12
41306;BME280;27051;50.376;19.152;2022-07-23T04:49:50;98208.23;;;22.61;56.02
41306;BME280;27051;50.376;19.152;2022-07-23T04:52:18;98208.23;;;22.61;56.15
41306;BME280;27051;50.376;19.152;2022-07-23T04:54:45;98211.38;;;22.71;56.34
41306;BME280;27051;50.376;19.152;2022-07-23T04:57:11;98205.13;;;22.71;55.89
41306;BME280;27051;50.376;19.152;2022-07-23T04:59:38;98210.48;;;22.66;55.99
41306;BME280;27051;50.376;19.152;2022-07-23T05:02:04;98202.63;;;22.68;56.25
41306;BME280;27051;50.376;19.152;2022-07-23T05:04:31;98201.31;;;22.76;56.18
41306;BME280;27051;50.376;19.152;2022-07-23T05:06:58;98212.20;;;22.92;56.24
41306;BME280;27051;50.376;19.152;2022-07-23T05:09:25;98205.54;;;23.05;56.10
41306;BME280;27051;50.376;19.152;2022-07-23T05:11:52;98203.27;;;23.11;56.01
41306;BME280;27051;50.376;19.152;2022-07-23T05:14:19;98201.91;;;23.11;56.17
41306;BME280;27051;50.376;19.152;2022-07-23T05:16:45;98203.50;;;23.21;56.10
41306;BME280;27051;50.376;19.152;2022-07-23T05:19:12;98208.25;;;23.28;56.00
41306;BME280;27051;50.376;19.152;2022-07-23T05:21:38;98204.58;;;23.35;56.00
41306;BME280;27051;50.376;19.152;2022-07-23T05:24:06;98207.21;;;23.50;55.98
41306;BME280;27051;50.376;19.152;2022-07-23T05:26:34;98209.51;;;23.64;56.04
41306;BME280;27051;50.376;19.152;2022-07-23T05:29:00;98204.75;;;23.76;55.88
41306;BME280;27051;50.376;19.152;2022-07-23T05:31:27;98209.67;;;23.85;55.56
41306;BME280;27051;50.376;19.152;2022-07-23T05:33:54;98203.98;;;23.75;54.93
41306;BME280;27051;50.376;19.152;2022-07-23T05:36:21;98199.05;;;23.67;55.02
41306;BME280;27051;50.376;19.152;2022-07-23T05:38:47;98200.98;;;23.78;55.34
41306;BME280;27051;50.376;19.152;2022-07-23T05:41:14;98194.69;;;23.97;55.11
41306;BME280;27051;50.376;19.152;2022-07-23T05:43:40;98199.17;;;24.16;55.10
41306;BME280;27051;50.376;19.152;2022-07-23T05:46:07;98195.75;;;24.28;54.81
41306;BME280;27051;50.376;19.152;2022-07-23T05:48:34;98200.31;;;24.43;54.40
41306;BME280;27051;50.376;19.152;2022-07-23T05:51:01;98200.89;;;24.42;54.22
41306;BME280;27051;50.376;19.152;2022-07-23T05:53:28;98197.42;;;24.50;54.33
41306;BME280;27051;50.376;19.152;2022-07-23T05:55:54;98192.42;;;24.61;54.42
41306;BME280;27051;50.376;19.152;2022-07-23T05:58:21;98189.84;;;24.71;54.03
41306;BME280;27051;50.376;19.152;2022-07-23T06:00:48;98187.95;;;24.76;53.86
41306;BME280;27051;50.376;19.152;2022-07-23T06:03:15;98182.44;;;24.84;53.62
41306;BME280;27051;50.376;19.152;2022-07-23T06:05:41;98180.77;;;24.95;53.85
41306;BME280;27051;50.376;19.152;2022-07-23T06:08:08;98176.20;;;25.04;53.55
41306;BME280;27051;50.376;19.152;2022-07-23T06:10:35;98168.10;;;25.05;53.27
41306;BME280;27051;50.376;19.152;2022-07-23T06:13:01;98163.10;;;25.08;53.46
41306;BME280;27051;50.376;19.152;2022-07-23T06:15:28;98165.59;;;25.11;53.44
41306;BME280;27051;50.376;19.152;2022-07-23T06:17:55;98162.41;;;25.21;53.49
41306;BME280;27051;50.376;19.152;2022-07-23T06:20:22;98155.18;;;25.27;53.25
41306;BME280;27051;50.376;19.152;2022-07-23T06:22:48;98153.61;;;25.34;53.35
41306;BME280;27051;50.376;19.152;2022-07-23T06:25:15;98159.44;;;25.49;53.33
41306;BME280;27051;50.376;19.152;2022-07-23T06:27:42;98153.65;;;25.60;53.09
41306;BME280;27051;50.376;19.152;2022-07-23T06:30:10;98150.84;;;25.68;53.00
41306;BME280;27051;50.376;19.152;2022-07-23T06:32:38;98148.64;;;25.75;52.67
41306;BME280;27051;50.376;19.152;2022-07-23T06:35:07;98144.36;;;25.87;52.72
41306;BME280;27051;50.376;19.152;2022-07-23T06:37:34;98141.45;;;25.99;52.34
41306;BME280;27051;50.376;19.152;2022-07-23T06:40:01;98138.63;;;26.07;52.16
41306;BME280;27051;50.376;19.152;2022-07-23T06:42:30;98136.88;;;26.13;51.91
41306;BME280;27051;50.376;19.152;2022-07-23T06:44:56;98130.86;;;26.23;51.85
41306;BME280;27051;50.376;19.152;2022-07-23T06:47:23;98142.63;;;26.36;51.92
41306;BME280;27051;50.376;19.152;2022-07-23T06:49:50;98136.98;;;26.53;51.66
41306;BME280;27051;50.376;19.152;2022-07-23T06:52:16;98143.67;;;26.65;51.09
41306;BME280;27051;50.376;19.152;2022-07-23T06:54:43;98138.88;;;26.78;50.97
41306;BME280;27051;50.376;19.152;2022-07-23T06:57:09;98137.45;;;26.91;50.75
41306;BME280;27051;50.376;19.152;2022-07-23T06:59:36;98138.77;;;27.03;50.60
41306;BME280;27051;50.376;19.152;2022-07-23T07:02:03;98142.52;;;27.14;50.86
41306;BME280;27051;50.376;19.152;2022-07-23T07:04:29;98138.19;;;27.26;50.34
41306;BME280;27051;50.376;19.152;2022-07-23T07:06:56;98139.19;;;27.41;50.05
41306;BME280;27051;50.376;19.152;2022-07-23T07:09:22;98134.34;;;27.55;49.90
41306;BME280;27051;50.376;19.152;2022-07-23T07:11:49;98138.25;;;27.66;49.85
41306;BME280;27051;50.376;19.152;2022-07-23T07:14:16;98143.81;;;27.80;50.03
41306;BME280;27051;50.376;19.152;2022-07-23T07:16:43;98148.65;;;27.93;49.80
41306;BME280;27051;50.376;19.152;2022-07-23T07:19:09;98151.33;;;28.06;49.50
41306;BME280;27051;50.376;19.152;2022-07-23T07:21:36;98151.31;;;28.11;48.82
41306;BME280;27051;50.376;19.152;2022-07-23T07:24:04;98149.20;;;28.20;48.88
41306;BME280;27051;50.376;19.152;2022-07-23T07:26:33;98136.47;;;28.31;48.78
41306;BME280;27051;50.376;19.152;2022-07-23T07:29:00;98133.16;;;28.46;48.40
41306;BME280;27051;50.376;19.152;2022-07-23T07:31:28;98137.02;;;28.58;48.46
41306;BME280;27051;50.376;19.152;2022-07-23T07:33:55;98142.23;;;28.69;48.46
41306;BME280;27051;50.376;19.152;2022-07-23T07:36:22;98148.23;;;28.86;48.30
41306;BME280;27051;50.376;19.152;2022-07-23T07:38:50;98143.92;;;28.99;47.65
41306;BME280;27051;50.376;19.152;2022-07-23T07:41:17;98146.25;;;29.05;47.01
41306;BME280;27051;50.376;19.152;2022-07-23T07:43:44;98149.77;;;29.10;46.82
41306;BME280;27051;50.376;19.152;2022-07-23T07:46:10;98146.52;;;29.26;46.96
41306;BME280;27051;50.376;19.152;2022-07-23T07:48:37;98142.81;;;29.38;46.46
41306;BME280;27051;50.376;19.152;2022-07-23T07:51:04;98141.55;;;29.48;46.41
41306;BME280;27051;50.376;19.152;2022-07-23T07:53:31;98147.20;;;29.63;46.21
41306;BME280;27051;50.376;19.152;2022-07-23T07:55:58;98154.27;;;29.78;45.61
41306;BME280;27051;50.376;19.152;2022-07-23T07:58:26;98149.02;;;29.84;45.20
41306;BME280;27051;50.376;19.152;2022-07-23T08:00:52;98160.80;;;29.94;44.76
41306;BME280;27051;50.376;19.152;2022-07-23T08:03:19;98171.09;;;30.03;44.81
41306;BME280;27051;50.376;19.152;2022-07-23T08:05:46;98166.09;;;30.16;44.77
41306;BME280;27051;50.376;19.152;2022-07-23T08:08:12;98162.36;;;30.28;44.25
41306;BME280;27051;50.376;19.152;2022-07-23T08:10:39;98163.35;;;30.40;44.00
41306;BME280;27051;50.376;19.152;2022-07-23T08:13:06;98160.02;;;30.56;43.74
41306;BME280;27051;50.376;19.152;2022-07-23T08:15:32;98160.56;;;30.69;42.51
41306;BME280;27051;50.376;19.152;2022-07-23T08:17:59;98158.02;;;30.76;42.30
41306;BME280;27051;50.376;19.152;2022-07-23T08:20:26;98150.30;;;30.80;41.72
41306;BME280;27051;50.376;19.152;2022-07-23T08:22:56;98145.77;;;30.91;41.31
41306;BME280;27051;50.376;19.152;2022-07-23T08:28:00;98128.73;;;31.13;41.47
41306;BME280;27051;50.376;19.152;2022-07-23T08:30:29;98122.05;;;31.20;40.94
41306;BME280;27051;50.376;19.152;2022-07-23T08:35:38;98120.33;;;31.38;40.71
41306;BME280;27051;50.376;19.152;2022-07-23T08:38:05;98112.06;;;31.48;40.81
41306;BME280;27051;50.376;19.152;2022-07-23T08:40:36;98113.10;;;31.65;40.60
41306;BME280;27051;50.376;19.152;2022-07-23T08:43:08;98110.61;;;31.77;40.11
41306;BME280;27051;50.376;19.152;2022-07-23T08:45:40;98100.64;;;31.86;39.82
41306;BME280;27051;50.376;19.152;2022-07-23T08:48:17;98106.59;;;31.93;39.40
41306;BME280;27051;50.376;19.152;2022-07-23T08:50:48;98110.33;;;32.00;39.38
41306;BME280;27051;50.376;19.152;2022-07-23T08:53:17;98115.22;;;32.16;39.00
41306;BME280;27051;50.376;19.152;2022-07-23T08:55:47;98114.69;;;32.32;38.84
41306;BME280;27051;50.376;19.152;2022-07-23T08:58:20;98112.66;;;32.43;36.83
41306;BME280;27051;50.376;19.152;2022-07-23T09:00:48;98105.73;;;32.53;37.40
41306;BME280;27051;50.376;19.152;2022-07-23T09:03:18;98110.65;;;32.64;37.87
41306;BME280;27051;50.376;19.152;2022-07-23T09:05:49;98116.20;;;32.74;37.54
41306;BME280;27051;50.376;19.152;2022-07-23T09:08:21;98111.81;;;32.88;37.04
41306;BME280;27051;50.376;19.152;2022-07-23T09:10:55;98109.76;;;33.09;36.81
41306;BME280;27051;50.376;19.152;2022-07-23T09:13:41;98108.66;;;33.27;36.78
41306;BME280;27051;50.376;19.152;2022-07-23T09:16:24;98107.45;;;33.49;36.43
41306;BME280;27051;50.376;19.152;2022-07-23T09:18:57;98110.64;;;33.68;35.83
41306;BME280;27051;50.376;19.152;2022-07-23T09:21:33;98115.73;;;33.91;35.77
41306;BME280;27051;50.376;19.152;2022-07-23T09:24:12;98119.34;;;34.19;35.10
41306;BME280;27051;50.376;19.152;2022-07-23T09:26:44;98116.28;;;34.44;34.38
41306;BME280;27051;50.376;19.152;2022-07-23T09:31:54;98114.63;;;35.19;34.22
41306;BME280;27051;50.376;19.152;2022-07-23T09:34:25;98113.00;;;35.68;33.27
41306;BME280;27051;50.376;19.152;2022-07-23T09:36:57;98106.93;;;36.21;33.01
41306;BME280;27051;50.376;19.152;2022-07-23T09:39:31;98106.88;;;36.67;31.81
41306;BME280;27051;50.376;19.152;2022-07-23T09:42:17;98106.25;;;36.85;31.38
41306;BME280;27051;50.376;19.152;2022-07-23T09:44:53;98106.16;;;37.02;31.67
41306;BME280;27051;50.376;19.152;2022-07-23T09:47:25;98105.58;;;37.15;30.96
41306;BME280;27051;50.376;19.152;2022-07-23T09:50:01;98101.20;;;37.50;30.56
41306;BME280;27051;50.376;19.152;2022-07-23T09:52:33;98103.05;;;38.02;30.56
41306;BME280;27051;50.376;19.152;2022-07-23T09:55:04;98105.45;;;38.36;29.10
41306;BME280;27051;50.376;19.152;2022-07-23T09:57:33;98104.19;;;38.75;28.71
41306;BME280;27051;50.376;19.152;2022-07-23T10:00:03;98105.18;;;39.22;28.00
41306;BME280;27051;50.376;19.152;2022-07-23T10:02:34;98096.52;;;39.59;27.10
41306;BME280;27051;50.376;19.152;2022-07-23T10:05:03;98093.02;;;39.98;26.90
41306;BME280;27051;50.376;19.152;2022-07-23T10:07:37;98083.35;;;40.47;26.76
41306;BME280;27051;50.376;19.152;2022-07-23T10:10:05;98079.70;;;41.07;26.12
41306;BME280;27051;50.376;19.152;2022-07-23T10:12:33;98077.27;;;41.39;25.32
41306;BME280;27051;50.376;19.152;2022-07-23T10:15:01;98074.56;;;41.40;25.41
41306;BME280;27051;50.376;19.152;2022-07-23T10:17:29;98075.91;;;41.47;25.43
41306;BME280;27051;50.376;19.152;2022-07-23T10:19:57;98077.56;;;41.42;24.96
41306;BME280;27051;50.376;19.152;2022-07-23T10:22:26;98073.59;;;41.16;24.38
41306;BME280;27051;50.376;19.152;2022-07-23T10:25:30;98062.28;;;41.02;24.52
41306;BME280;27051;50.376;19.152;2022-07-23T10:30:54;98067.96;;;41.16;24.05
41306;BME280;27051;50.376;19.152;2022-07-23T10:37:28;98055.02;;;40.79;23.12
41306;BME280;27051;50.376;19.152;2022-07-23T10:39:22;98060.46;;;40.64;23.57
41306;BME280;27051;50.376;19.152;2022-07-23T10:42:07;98060.90;;;40.61;23.04
41306;BME280;27051;50.376;19.152;2022-07-23T10:44:48;98059.81;;;40.57;23.24
41306;BME280;27051;50.376;19.152;2022-07-23T10:47:28;98055.15;;;40.60;23.61
41306;BME280;27051;50.376;19.152;2022-07-23T10:49:53;98061.00;;;40.62;23.17
41306;BME280;27051;50.376;19.152;2022-07-23T10:52:25;98056.66;;;40.68;22.92
41306;BME280;27051;50.376;19.152;2022-07-23T10:57:48;98047.05;;;41.54;21.77
41306;BME280;27051;50.376;19.152;2022-07-23T11:00:22;98050.14;;;42.14;21.63
41306;BME280;27051;50.376;19.152;2022-07-23T11:02:52;98044.83;;;42.84;21.19
41306;BME280;27051;50.376;19.152;2022-07-23T11:05:25;98036.84;;;43.05;20.55
41306;BME280;27051;50.376;19.152;2022-07-23T11:10:41;98034.34;;;43.31;20.47
41306;BME280;27051;50.376;19.152;2022-07-23T11:13:32;98036.20;;;43.05;20.04
41306;BME280;27051;50.376;19.152;2022-07-23T11:16:11;98042.21;;;42.94;19.53
41306;BME280;27051;50.376;19.152;2022-07-23T11:18:53;98030.57;;;43.28;19.66
41306;BME280;27051;50.376;19.152;2022-07-23T11:23:59;98036.13;;;44.21;17.97
41306;BME280;27051;50.376;19.152;2022-07-23T11:32:20;98018.56;;;45.14;18.49
41306;BME280;27051;50.376;19.152;2022-07-23T11:34:52;98013.31;;;45.35;18.25
41306;BME280;27051;50.376;19.152;2022-07-23T11:37:34;98019.52;;;45.85;17.61
41306;BME280;27051;50.376;19.152;2022-07-23T11:40:11;98013.14;;;46.20;17.65
41306;BME280;27051;50.376;19.152;2022-07-23T11:42:39;98009.17;;;46.78;17.44
41306;BME280;27051;50.376;19.152;2022-07-23T11:45:18;98004.36;;;47.45;16.99
41306;BME280;27051;50.376;19.152;2022-07-23T11:47:45;97998.68;;;48.03;16.86
41306;BME280;27051;50.376;19.152;2022-07-23T11:50:11;97998.93;;;48.37;16.12
41306;BME280;27051;50.376;19.152;2022-07-23T11:52:39;97997.50;;;48.67;15.16
41306;BME280;27051;50.376;19.152;2022-07-23T11:55:09;97991.20;;;48.68;15.09
41306;BME280;27051;50.376;19.152;2022-07-23T11:57:39;97998.31;;;48.89;14.89
41306;BME280;27051;50.376;19.152;2022-07-23T12:00:13;97992.94;;;49.25;14.63
41306;BME280;27051;50.376;19.152;2022-07-23T12:02:47;97990.97;;;49.17;14.65
41306;BME280;27051;50.376;19.152;2022-07-23T12:05:21;97990.44;;;48.47;14.64
41306;BME280;27051;50.376;19.152;2022-07-23T12:07:52;97979.09;;;47.31;14.88
41306;BME280;27051;50.376;19.152;2022-07-23T12:10:27;97976.01;;;47.18;15.58
41306;BME280;27051;50.376;19.152;2022-07-23T12:12:58;97974.98;;;48.11;15.06
41306;BME280;27051;50.376;19.152;2022-07-23T12:15:37;97971.25;;;49.00;14.49
41306;BME280;27051;50.376;19.152;2022-07-23T12:18:02;97976.63;;;49.81;14.32
41306;BME280;27051;50.376;19.152;2022-07-23T12:20:32;97976.52;;;50.24;13.74
41306;BME280;27051;50.376;19.152;2022-07-23T12:23:12;97978.66;;;50.69;12.74
41306;BME280;27051;50.376;19.152;2022-07-23T12:25:45;97977.40;;;51.08;12.87
41306;BME280;27051;50.376;19.152;2022-07-23T12:28:16;97971.09;;;51.47;12.83
41306;BME280;27051;50.376;19.152;2022-07-23T12:30:50;97966.11;;;52.24;12.81
41306;BME280;27051;50.376;19.152;2022-07-23T12:33:26;97962.44;;;52.35;12.00
41306;BME280;27051;50.376;19.152;2022-07-23T12:36:00;97954.47;;;51.81;12.09
41306;BME280;27051;50.376;19.152;2022-07-23T12:38:38;97956.23;;;51.37;12.24
41306;BME280;27051;50.376;19.152;2022-07-23T12:41:08;97958.73;;;51.56;12.21
41306;BME280;27051;50.376;19.152;2022-07-23T12:43:40;97948.85;;;51.21;12.38
41306;BME280;27051;50.376;19.152;2022-07-23T12:46:16;97948.24;;;51.23;12.57
41306;BME280;27051;50.376;19.152;2022-07-23T12:48:52;97943.75;;;51.82;12.49
41306;BME280;27051;50.376;19.152;2022-07-23T12:51:23;97943.18;;;52.24;12.17
41306;BME280;27051;50.376;19.152;2022-07-23T12:53:56;97939.16;;;51.77;12.29
41306;BME280;27051;50.376;19.152;2022-07-23T12:56:29;97921.32;;;51.15;12.77
41306;BME280;27051;50.376;19.152;2022-07-23T12:59:11;97920.94;;;50.15;12.81
41306;BME280;27051;50.376;19.152;2022-07-23T13:01:42;97922.58;;;48.76;13.51
41306;BME280;27051;50.376;19.152;2022-07-23T13:04:18;97929.58;;;47.35;13.97
41306;BME280;27051;50.376;19.152;2022-07-23T13:06:52;97926.17;;;46.33;14.44
41306;BME280;27051;50.376;19.152;2022-07-23T13:09:23;97922.28;;;45.32;14.97
41306;BME280;27051;50.376;19.152;2022-07-23T13:11:53;97921.63;;;44.32;15.81
41306;BME280;27051;50.376;19.152;2022-07-23T13:14:22;97926.47;;;43.66;16.79
41306;BME280;27051;50.376;19.152;2022-07-23T13:16:50;97922.27;;;42.96;17.54
41306;BME280;27051;50.376;19.152;2022-07-23T13:19:19;97922.53;;;42.23;18.08
41306;BME280;27051;50.376;19.152;2022-07-23T13:21:46;97923.69;;;41.54;19.09
41306;BME280;27051;50.376;19.152;2022-07-23T13:24:13;97920.19;;;40.97;19.19
41306;BME280;27051;50.376;19.152;2022-07-23T13:26:40;97914.88;;;40.58;19.84